createdAt,value
2023-04-09T00:00:23.307Z,45.60
2023-04-09T00:01:23.285Z,45.44
2023-04-09T00:02:23.293Z,45.76
2023-04-09T00:03:23.358Z,45.76
2023-04-09T00:04:23.298Z,45.12
2023-04-09T00:05:23.246Z,45.92
2023-04-09T00:06:23.274Z,45.76
2023-04-09T00:07:23.237Z,45.92
2023-04-09T00:08:23.230Z,45.92
2023-04-09T00:09:23.212Z,45.60
2023-04-09T00:10:23.224Z,45.28
2023-04-09T00:11:23.247Z,45.76
2023-04-09T00:12:23.200Z,45.76
2023-04-09T00:13:31.949Z,46.08
2023-04-09T00:14:25.177Z,45.76
2023-04-09T00:15:30.748Z,46.25
2023-04-09T00:16:25.214Z,45.60
2023-04-09T00:17:23.194Z,46.25
2023-04-09T00:18:23.169Z,45.92
2023-04-09T00:19:23.199Z,45.76
2023-04-09T00:20:23.138Z,45.76
2023-04-09T00:21:23.129Z,45.60
2023-04-09T00:22:23.125Z,45.60
2023-04-09T00:23:23.125Z,45.60
2023-04-09T00:24:23.104Z,45.76
2023-04-09T00:25:23.104Z,45.92
2023-04-09T00:26:23.104Z,45.76
2023-04-09T00:27:23.090Z,45.92
2023-04-09T00:28:23.109Z,45.76
2023-04-09T00:29:23.066Z,47.21
2023-04-09T00:30:23.063Z,45.44
2023-04-09T00:31:23.101Z,45.76
2023-04-09T00:32:23.053Z,45.60
2023-04-09T00:33:23.038Z,45.44
2023-04-09T00:34:23.033Z,45.28
2023-04-09T00:35:24.039Z,45.60
2023-04-09T00:36:24.709Z,45.28
2023-04-09T00:37:23.009Z,45.44
2023-04-09T00:38:23.017Z,45.76
2023-04-09T00:39:22.996Z,45.60
2023-04-09T00:40:23.010Z,45.44
2023-04-09T00:41:23.003Z,45.60
2023-04-09T00:42:22.990Z,45.28
2023-04-09T00:43:22.990Z,45.12
2023-04-09T00:44:22.962Z,45.28
2023-04-09T00:45:24.032Z,45.60
2023-04-09T00:46:22.977Z,45.76
2023-04-09T00:47:23.020Z,44.63
2023-04-09T00:48:22.947Z,45.28
2023-04-09T00:49:22.938Z,45.76
2023-04-09T00:50:22.960Z,45.44
2023-04-09T00:51:22.934Z,45.28
2023-04-09T00:52:22.907Z,45.28
2023-04-09T00:53:22.907Z,45.60
2023-04-09T00:54:22.901Z,45.76
2023-04-09T00:55:22.899Z,45.60
2023-04-09T00:56:22.906Z,45.44
2023-04-09T00:57:22.896Z,45.44
2023-04-09T00:58:22.874Z,45.44
2023-04-09T00:59:22.874Z,45.76
2023-04-09T01:00:22.884Z,46.25
2023-04-09T01:01:22.892Z,45.44
2023-04-09T01:02:23.241Z,45.60
2023-04-09T01:03:22.928Z,46.41
2023-04-09T01:04:22.857Z,46.08
2023-04-09T01:05:22.828Z,46.57
2023-04-09T01:06:22.820Z,45.76
2023-04-09T01:07:22.810Z,45.92
2023-04-09T01:08:22.849Z,45.60
2023-04-09T01:09:22.824Z,45.28
2023-04-09T01:10:22.790Z,45.76
2023-04-09T01:11:22.782Z,45.60
2023-04-09T01:12:22.793Z,45.60
2023-04-09T01:13:22.795Z,45.44
2023-04-09T01:14:22.768Z,45.28
2023-04-09T01:15:22.760Z,45.44
2023-04-09T01:16:22.781Z,45.92
2023-04-09T01:17:22.740Z,44.96
2023-04-09T01:18:22.761Z,45.76
2023-04-09T01:19:22.729Z,45.92
2023-04-09T01:20:22.743Z,45.60
2023-04-09T01:21:22.734Z,45.76
2023-04-09T01:22:22.715Z,45.12
2023-04-09T01:23:22.706Z,45.28
2023-04-09T01:24:22.712Z,45.12
2023-04-09T01:25:22.697Z,45.28
2023-04-09T01:26:22.714Z,45.60
2023-04-09T01:27:22.676Z,45.44
2023-04-09T01:28:22.660Z,46.08
2023-04-09T01:29:22.670Z,45.76
2023-04-09T01:30:22.676Z,46.08
2023-04-09T01:31:22.648Z,45.28
2023-04-09T01:32:22.689Z,45.28
2023-04-09T01:33:22.631Z,45.92
2023-04-09T01:34:22.623Z,45.60
2023-04-09T01:35:22.644Z,45.92
2023-04-09T01:36:22.614Z,45.92
2023-04-09T01:37:22.624Z,46.08
2023-04-09T01:38:22.587Z,46.73
2023-04-09T01:39:22.582Z,45.12
2023-04-09T01:40:22.588Z,44.96
2023-04-09T01:41:22.587Z,44.79
2023-04-09T01:42:22.594Z,45.28
2023-04-09T01:43:22.565Z,45.28
2023-04-09T01:44:22.551Z,44.96
2023-04-09T01:45:22.551Z,45.28
2023-04-09T01:46:22.575Z,45.44
2023-04-09T01:47:22.656Z,45.12
2023-04-09T01:48:22.531Z,45.60
2023-04-09T01:49:22.532Z,45.28
2023-04-09T01:50:22.514Z,44.96
2023-04-09T01:51:22.513Z,45.28
2023-04-09T01:52:22.524Z,45.60
2023-04-09T01:53:22.535Z,45.76
2023-04-09T01:54:22.479Z,45.44
2023-04-09T01:55:22.502Z,45.44
2023-04-09T01:56:22.469Z,44.96
2023-04-09T01:57:22.477Z,45.76
2023-04-09T01:58:22.477Z,45.60
2023-04-09T01:59:22.480Z,45.76
2023-04-09T02:00:22.436Z,45.44
2023-04-09T02:01:22.498Z,45.12
2023-04-09T02:02:22.484Z,45.28
2023-04-09T02:03:22.502Z,44.79
2023-04-09T02:04:22.440Z,45.28
2023-04-09T02:05:22.435Z,45.44
2023-04-09T02:06:22.407Z,45.60
2023-04-09T02:07:22.410Z,45.44
2023-04-09T02:08:22.390Z,45.92
2023-04-09T02:09:22.383Z,46.08
2023-04-09T02:10:22.391Z,45.28
2023-04-09T02:11:22.368Z,45.28
2023-04-09T02:12:22.368Z,45.28
2023-04-09T02:13:22.356Z,45.12
2023-04-09T02:14:22.361Z,45.12
2023-04-09T02:15:22.386Z,45.76
2023-04-09T02:16:22.351Z,45.28
2023-04-09T02:17:22.355Z,45.28
2023-04-09T02:18:22.320Z,45.60
2023-04-09T02:19:22.319Z,45.28
2023-04-09T02:20:22.311Z,45.44
2023-04-09T02:21:22.306Z,45.76
2023-04-09T02:22:22.301Z,45.60
2023-04-09T02:23:22.289Z,45.44
2023-04-09T02:24:22.273Z,45.60
2023-04-09T02:25:22.282Z,46.08
2023-04-09T02:26:22.282Z,45.60
2023-04-09T02:27:22.283Z,45.28
2023-04-09T02:28:22.240Z,45.28
2023-04-09T02:29:22.267Z,44.96
2023-04-09T02:30:22.292Z,45.44
2023-04-09T02:31:22.254Z,45.60
2023-04-09T02:32:22.252Z,45.60
2023-04-09T02:33:22.212Z,45.28
2023-04-09T02:34:22.226Z,45.76
2023-04-09T02:35:22.238Z,45.60
2023-04-09T02:36:22.191Z,45.44
2023-04-09T02:37:22.211Z,45.60
2023-04-09T02:38:22.199Z,45.28
2023-04-09T02:39:22.190Z,45.44
2023-04-09T02:40:22.174Z,45.76
2023-04-09T02:41:22.175Z,45.92
2023-04-09T02:42:22.180Z,45.92
2023-04-09T02:43:22.181Z,45.92
2023-04-09T02:44:22.166Z,45.44
2023-04-09T02:45:22.131Z,45.92
2023-04-09T02:46:22.172Z,45.76
2023-04-09T02:47:22.148Z,45.60
2023-04-09T02:48:22.122Z,46.41
2023-04-09T02:49:22.117Z,46.25
2023-04-09T02:50:22.114Z,45.28
2023-04-09T02:51:22.089Z,45.12
2023-04-09T02:52:22.081Z,45.60
2023-04-09T02:53:22.078Z,45.76
2023-04-09T02:54:22.074Z,45.92
2023-04-09T02:55:22.095Z,45.76
2023-04-09T02:56:22.067Z,44.79
2023-04-09T02:57:22.051Z,45.28
2023-04-09T02:58:22.054Z,45.44
2023-04-09T02:59:22.043Z,45.92
2023-04-09T03:00:22.107Z,45.28
2023-04-09T03:01:22.035Z,45.76
2023-04-09T03:02:23.309Z,45.28
2023-04-09T03:03:22.136Z,45.60
2023-04-09T03:04:22.139Z,45.76
2023-04-09T03:05:21.996Z,45.76
2023-04-09T03:06:21.983Z,46.08
2023-04-09T03:07:21.973Z,45.92
2023-04-09T03:08:21.962Z,45.60
2023-04-09T03:09:21.979Z,46.08
2023-04-09T03:10:21.964Z,45.92
2023-04-09T03:11:21.951Z,45.76
2023-04-09T03:12:21.969Z,46.08
2023-04-09T03:13:21.938Z,45.76
2023-04-09T03:14:21.940Z,45.60
2023-04-09T03:15:21.937Z,46.08
2023-04-09T03:16:21.962Z,45.76
2023-04-09T03:17:21.934Z,45.92
2023-04-09T03:18:21.909Z,45.60
2023-04-09T03:19:21.897Z,45.92
2023-04-09T03:20:21.902Z,45.60
2023-04-09T03:21:21.894Z,45.76
2023-04-09T03:22:21.871Z,45.60
2023-04-09T03:23:21.873Z,46.25
2023-04-09T03:24:21.882Z,45.60
2023-04-09T03:25:21.857Z,45.92
2023-04-09T03:26:21.840Z,45.60
2023-04-09T03:27:21.843Z,45.92
2023-04-09T03:28:21.832Z,45.28
2023-04-09T03:29:21.848Z,45.28
2023-04-09T03:30:21.822Z,45.60
2023-04-09T03:31:21.818Z,45.28
2023-04-09T03:32:21.801Z,45.92
2023-04-09T03:33:21.798Z,45.60
2023-04-09T03:34:21.795Z,46.08
2023-04-09T03:35:21.804Z,46.89
2023-04-09T03:36:21.772Z,46.73
2023-04-09T03:37:21.757Z,46.25
2023-04-09T03:38:22.766Z,45.92
2023-04-09T03:39:21.761Z,46.41
2023-04-09T03:40:21.744Z,46.89
2023-04-09T03:41:21.741Z,46.08
2023-04-09T03:42:21.735Z,45.76
2023-04-09T03:43:21.725Z,45.76
2023-04-09T03:44:21.729Z,46.41
2023-04-09T03:45:21.717Z,46.41
2023-04-09T03:46:21.754Z,46.57
2023-04-09T03:47:21.743Z,46.57
2023-04-09T03:48:21.696Z,46.89
2023-04-09T03:49:21.705Z,46.57
2023-04-09T03:50:21.690Z,46.89
2023-04-09T03:51:21.692Z,46.41
2023-04-09T03:52:21.672Z,47.21
2023-04-09T03:53:21.663Z,46.57
2023-04-09T03:54:21.684Z,46.41
2023-04-09T03:55:21.658Z,46.08
2023-04-09T03:56:21.639Z,46.57
2023-04-09T03:57:21.630Z,46.73
2023-04-09T03:58:21.619Z,46.73
2023-04-09T03:59:21.619Z,46.57
2023-04-09T04:00:21.628Z,46.73
2023-04-09T04:01:21.603Z,47.53
2023-04-09T04:02:21.744Z,46.25
2023-04-09T04:03:21.670Z,46.89
2023-04-09T04:04:23.612Z,47.37
2023-04-09T04:05:22.600Z,46.89
2023-04-09T04:06:21.584Z,46.57
2023-04-09T04:07:21.562Z,46.08
2023-04-09T04:08:21.548Z,46.57
2023-04-09T04:09:21.550Z,47.05
2023-04-09T04:10:21.564Z,46.25
2023-04-09T04:11:21.556Z,46.41
2023-04-09T04:12:21.528Z,46.73
2023-04-09T04:13:21.532Z,46.08
2023-04-09T04:14:21.502Z,46.89
2023-04-09T04:15:22.505Z,46.41
2023-04-09T04:16:21.534Z,46.73
2023-04-09T04:17:21.514Z,46.57
2023-04-09T04:18:21.490Z,46.57
2023-04-09T04:19:21.486Z,46.73
2023-04-09T04:20:21.494Z,45.92
2023-04-09T04:21:21.478Z,46.41
2023-04-09T04:22:21.467Z,46.41
2023-04-09T04:23:21.454Z,46.89
2023-04-09T04:24:21.457Z,46.89
2023-04-09T04:25:21.619Z,45.60
2023-04-09T04:26:21.426Z,46.57
2023-04-09T04:27:21.423Z,46.41
2023-04-09T04:28:21.416Z,46.57
2023-04-09T04:29:21.411Z,46.41
2023-04-09T04:30:21.419Z,46.25
2023-04-09T04:31:21.448Z,46.89
2023-04-09T04:32:21.386Z,46.08
2023-04-09T04:33:21.409Z,46.25
2023-04-09T04:34:21.375Z,46.73
2023-04-09T04:35:21.387Z,46.73
2023-04-09T04:36:21.364Z,47.37
2023-04-09T04:37:21.372Z,46.57
2023-04-09T04:38:21.363Z,46.25
2023-04-09T04:39:21.354Z,47.21
2023-04-09T04:40:21.339Z,46.89
2023-04-09T04:41:21.331Z,46.89
2023-04-09T04:42:21.347Z,46.89
2023-04-09T04:43:21.318Z,45.92
2023-04-09T04:44:21.311Z,45.60
2023-04-09T04:45:21.325Z,46.25
2023-04-09T04:46:21.340Z,46.57
2023-04-09T04:47:21.389Z,46.25
2023-04-09T04:48:21.288Z,46.57
2023-04-09T04:49:21.279Z,46.89
2023-04-09T04:50:21.274Z,46.25
2023-04-09T04:51:21.266Z,46.73
2023-04-09T04:52:21.251Z,46.41
2023-04-09T04:53:21.286Z,45.92
2023-04-09T04:54:21.248Z,46.08
2023-04-09T04:55:21.233Z,46.25
2023-04-09T04:56:21.226Z,46.89
2023-04-09T04:57:21.231Z,46.41
2023-04-09T04:58:21.228Z,47.37
2023-04-09T04:59:21.218Z,46.08
2023-04-09T05:00:21.237Z,47.86
2023-04-09T05:01:21.238Z,46.25
2023-04-09T05:02:21.353Z,46.41
2023-04-09T05:03:21.268Z,46.41
2023-04-09T05:04:21.202Z,46.41
2023-04-09T05:05:21.172Z,46.25
2023-04-09T05:06:21.161Z,46.73
2023-04-09T05:07:21.170Z,46.89
2023-04-09T05:08:21.170Z,46.89
2023-04-09T05:09:22.431Z,46.89
2023-04-09T05:10:22.132Z,46.73
2023-04-09T05:11:21.152Z,46.57
2023-04-09T05:12:21.118Z,46.57
2023-04-09T05:13:21.122Z,46.08
2023-04-09T05:14:21.106Z,46.41
2023-04-09T05:15:22.105Z,46.41
2023-04-09T05:16:21.175Z,47.21
2023-04-09T05:17:21.099Z,46.57
2023-04-09T05:18:21.081Z,46.73
2023-04-09T05:19:21.096Z,45.92
2023-04-09T05:20:21.082Z,46.41
2023-04-09T05:21:21.131Z,46.25
2023-04-09T05:22:21.044Z,45.60
2023-04-09T05:23:21.033Z,46.89
2023-04-09T05:24:21.066Z,47.21
2023-04-09T05:25:21.037Z,46.25
2023-04-09T05:26:21.110Z,46.73
2023-04-09T05:27:21.036Z,47.70
2023-04-09T05:28:21.025Z,46.73
2023-04-09T05:29:21.005Z,46.73
2023-04-09T05:30:21.009Z,46.89
2023-04-09T05:31:20.990Z,47.05
2023-04-09T05:32:21.007Z,46.73
2023-04-09T05:33:20.977Z,47.05
2023-04-09T05:34:20.961Z,46.89
2023-04-09T05:35:20.985Z,46.73
2023-04-09T05:36:20.960Z,46.57
2023-04-09T05:37:20.951Z,46.25
2023-04-09T05:38:20.942Z,46.25
2023-04-09T05:39:20.936Z,47.21
2023-04-09T05:40:20.932Z,47.21
2023-04-09T05:41:20.925Z,46.89
2023-04-09T05:42:20.914Z,47.37
2023-04-09T05:43:20.910Z,47.21
2023-04-09T05:44:20.892Z,46.41
2023-04-09T05:45:21.918Z,47.53
2023-04-09T05:46:20.980Z,48.02
2023-04-09T05:47:21.002Z,46.25
2023-04-09T05:48:20.880Z,46.89
2023-04-09T05:49:20.872Z,47.37
2023-04-09T05:50:20.886Z,47.21
2023-04-09T05:51:20.894Z,46.73
2023-04-09T05:52:20.850Z,46.73
2023-04-09T05:53:20.866Z,47.05
2023-04-09T05:54:20.839Z,49.31
2023-04-09T05:55:20.851Z,48.18
2023-04-09T05:56:20.818Z,46.73
2023-04-09T05:57:20.820Z,47.53
2023-04-09T05:58:20.812Z,47.05
2023-04-09T05:59:20.813Z,46.57
2023-04-09T06:00:20.813Z,46.73
2023-04-09T06:01:20.790Z,47.05
2023-04-09T06:02:21.048Z,47.86
2023-04-09T06:03:21.061Z,47.37
2023-04-09T06:04:20.980Z,46.89
2023-04-09T06:05:20.794Z,46.89
2023-04-09T06:06:20.754Z,48.18
2023-04-09T06:07:20.761Z,47.37
2023-04-09T06:08:20.745Z,46.57
2023-04-09T06:09:20.740Z,47.21
2023-04-09T06:10:20.738Z,46.41
2023-04-09T06:11:20.719Z,46.41
2023-04-09T06:12:20.736Z,46.89
2023-04-09T06:13:20.710Z,47.05
2023-04-09T06:14:20.709Z,47.05
2023-04-09T06:15:20.720Z,46.89
2023-04-09T06:16:20.771Z,48.66
2023-04-09T06:17:20.727Z,46.89
2023-04-09T06:18:20.669Z,46.08
2023-04-09T06:19:20.672Z,47.21
2023-04-09T06:20:20.675Z,47.37
2023-04-09T06:21:20.663Z,46.57
2023-04-09T06:22:20.647Z,48.34
2023-04-09T06:23:20.703Z,47.37
2023-04-09T06:24:20.624Z,46.89
2023-04-09T06:25:20.655Z,47.05
2023-04-09T06:26:20.615Z,46.41
2023-04-09T06:27:20.610Z,47.05
2023-04-09T06:28:20.602Z,48.02
2023-04-09T06:29:22.610Z,46.57
2023-04-09T06:30:20.609Z,46.57
2023-04-09T06:31:20.595Z,47.05
2023-04-09T06:32:20.580Z,46.73
2023-04-09T06:33:20.582Z,47.05
2023-04-09T06:34:20.555Z,47.86
2023-04-09T06:35:20.650Z,47.37
2023-04-09T06:36:20.540Z,47.05
2023-04-09T06:37:20.551Z,47.37
2023-04-09T06:38:20.542Z,46.89
2023-04-09T06:39:20.532Z,47.37
2023-04-09T06:40:22.907Z,47.21
2023-04-09T06:41:21.522Z,46.89
2023-04-09T06:42:20.507Z,48.98
2023-04-09T06:43:20.514Z,46.89
2023-04-09T06:44:20.488Z,47.37
2023-04-09T06:45:20.495Z,46.57
2023-04-09T06:46:20.544Z,47.53
2023-04-09T06:47:20.486Z,46.73
2023-04-09T06:48:20.484Z,46.73
2023-04-09T06:49:20.467Z,47.70
2023-04-09T06:50:20.470Z,46.41
2023-04-09T06:51:20.447Z,46.73
2023-04-09T06:52:20.448Z,46.73
2023-04-09T06:53:20.467Z,46.57
2023-04-09T06:54:20.463Z,46.08
2023-04-09T06:55:20.750Z,45.92
2023-04-09T06:56:20.430Z,46.41
2023-04-09T06:57:20.415Z,47.53
2023-04-09T06:58:20.406Z,45.28
2023-04-09T06:59:20.419Z,45.28
2023-04-09T07:00:20.425Z,45.44
2023-04-09T07:01:20.441Z,45.76
2023-04-09T07:02:20.543Z,44.31
2023-04-09T07:03:20.460Z,45.44
2023-04-09T07:04:20.542Z,43.83
2023-04-09T07:05:20.362Z,43.83
2023-04-09T07:06:20.362Z,44.31
2023-04-09T07:07:20.370Z,43.99
2023-04-09T07:08:20.354Z,43.99
2023-04-09T07:09:20.353Z,43.18
2023-04-09T07:10:20.348Z,44.47
2023-04-09T07:11:20.337Z,45.12
2023-04-09T07:12:20.314Z,46.08
2023-04-09T07:13:20.318Z,45.44
2023-04-09T07:14:20.303Z,46.57
2023-04-09T07:15:20.316Z,45.76
2023-04-09T07:16:20.341Z,45.44
2023-04-09T07:17:20.306Z,45.92
2023-04-09T07:18:20.281Z,45.44
2023-04-09T07:19:20.280Z,45.12
2023-04-09T07:20:20.696Z,44.63
2023-04-09T07:21:20.249Z,44.96
2023-04-09T07:22:20.254Z,45.44
2023-04-09T07:23:20.241Z,46.08
2023-04-09T07:24:20.244Z,45.12
2023-04-09T07:25:20.232Z,48.34
2023-04-09T07:26:20.225Z,48.34
2023-04-09T07:27:20.227Z,47.86
2023-04-09T07:28:20.207Z,46.08
2023-04-09T07:29:20.229Z,45.76
2023-04-09T07:30:20.199Z,46.41
2023-04-09T07:31:20.213Z,44.47
2023-04-09T07:32:20.189Z,46.57
2023-04-09T07:33:20.332Z,45.44
2023-04-09T07:34:20.188Z,44.31
2023-04-09T07:35:20.176Z,46.25
2023-04-09T07:36:20.196Z,47.05
2023-04-09T07:37:20.144Z,46.57
2023-04-09T07:38:20.146Z,46.57
2023-04-09T07:39:20.181Z,48.18
2023-04-09T07:40:20.132Z,47.05
2023-04-09T07:41:20.123Z,46.25
2023-04-09T07:42:20.116Z,46.25
2023-04-09T07:43:21.426Z,46.89
2023-04-09T07:44:21.100Z,47.37
2023-04-09T07:45:20.098Z,46.41
2023-04-09T07:46:20.128Z,46.89
2023-04-09T07:47:20.145Z,47.21
2023-04-09T07:48:20.078Z,45.92
2023-04-09T07:49:20.075Z,45.28
2023-04-09T07:50:20.068Z,45.44
2023-04-09T07:51:20.066Z,45.44
2023-04-09T07:52:20.056Z,45.60
2023-04-09T07:53:20.037Z,45.28
2023-04-09T07:54:20.048Z,43.99
2023-04-09T07:55:20.055Z,44.79
2023-04-09T07:56:20.029Z,44.96
2023-04-09T07:57:20.034Z,44.15
2023-04-09T07:58:20.006Z,45.28
2023-04-09T07:59:21.019Z,46.73
2023-04-09T08:00:20.004Z,44.47
2023-04-09T08:01:19.995Z,44.96
2023-04-09T08:02:20.060Z,42.22
2023-04-09T08:03:20.210Z,43.67
2023-04-09T08:04:20.133Z,44.15
2023-04-09T08:05:20.303Z,44.79
2023-04-09T08:06:19.969Z,45.92
2023-04-09T08:07:19.947Z,43.18
2023-04-09T08:08:19.964Z,44.63
2023-04-09T08:09:19.958Z,45.44
2023-04-09T08:10:19.940Z,44.79
2023-04-09T08:11:19.924Z,43.34
2023-04-09T08:12:19.940Z,43.83
2023-04-09T08:13:19.940Z,44.96
2023-04-09T08:14:19.923Z,45.28
2023-04-09T08:15:19.898Z,44.31
2023-04-09T08:16:19.986Z,46.25
2023-04-09T08:17:19.908Z,44.31
2023-04-09T08:18:19.879Z,44.47
2023-04-09T08:19:19.883Z,45.28
2023-04-09T08:20:19.865Z,43.99
2023-04-09T08:21:19.866Z,43.18
2023-04-09T08:22:19.855Z,45.12
2023-04-09T08:23:19.840Z,43.02
2023-04-09T08:24:19.864Z,41.73
2023-04-09T08:25:19.839Z,42.22
2023-04-09T08:26:19.826Z,45.44
2023-04-09T08:27:19.830Z,46.41
2023-04-09T08:28:19.822Z,44.47
2023-04-09T08:29:19.818Z,45.28
2023-04-09T08:30:19.825Z,43.02
2023-04-09T08:31:19.822Z,45.76
2023-04-09T08:32:19.948Z,45.44
2023-04-09T08:33:19.781Z,45.76
2023-04-09T08:34:19.780Z,46.73
2023-04-09T08:35:19.807Z,44.31
2023-04-09T08:36:19.896Z,45.28
2023-04-09T08:37:19.773Z,45.44
2023-04-09T08:38:19.793Z,44.79
2023-04-09T08:39:19.751Z,46.08
2023-04-09T08:40:19.742Z,45.76
2023-04-09T08:41:19.729Z,46.25
2023-04-09T08:42:19.735Z,45.92
2023-04-09T08:43:19.751Z,46.89
2023-04-09T08:44:19.716Z,45.12
2023-04-09T08:45:19.706Z,42.54
2023-04-09T08:46:19.773Z,45.12
2023-04-09T08:47:19.697Z,47.37
2023-04-09T08:48:19.810Z,45.76
2023-04-09T08:49:19.695Z,43.67
2023-04-09T08:50:19.693Z,43.83
2023-04-09T08:51:19.671Z,46.73
2023-04-09T08:52:19.665Z,47.37
2023-04-09T08:53:19.647Z,46.08
2023-04-09T08:54:19.653Z,44.31
2023-04-09T08:55:19.651Z,47.37
2023-04-09T08:56:19.636Z,48.66
2023-04-09T08:57:19.641Z,46.08
2023-04-09T08:58:19.624Z,45.60
2023-04-09T08:59:19.625Z,45.92
2023-04-09T09:00:19.625Z,48.18
2023-04-09T09:01:19.634Z,47.53
2023-04-09T09:02:19.616Z,48.50
2023-04-09T09:03:19.621Z,48.50
2023-04-09T09:04:19.652Z,45.76
2023-04-09T09:05:19.587Z,48.82
2023-04-09T09:06:19.564Z,48.50
2023-04-09T09:07:19.567Z,47.37
2023-04-09T09:08:19.555Z,47.37
2023-04-09T09:09:19.567Z,47.70
2023-04-09T09:10:19.587Z,49.31
2023-04-09T09:11:19.535Z,48.66
2023-04-09T09:12:19.532Z,47.70
2023-04-09T09:13:19.554Z,45.60
2023-04-09T09:14:19.512Z,48.82
2023-04-09T09:15:19.507Z,47.05
2023-04-09T09:16:19.541Z,49.47
2023-04-09T09:17:19.513Z,48.98
2023-04-09T09:18:19.505Z,49.15
2023-04-09T09:19:19.478Z,50.11
2023-04-09T09:20:19.501Z,48.02
2023-04-09T09:21:19.459Z,47.05
2023-04-09T09:22:19.456Z,46.89
2023-04-09T09:23:19.465Z,48.66
2023-04-09T09:24:19.437Z,49.95
2023-04-09T09:25:19.440Z,50.11
2023-04-09T09:26:19.436Z,49.47
2023-04-09T09:27:19.414Z,49.63
2023-04-09T09:28:19.450Z,50.27
2023-04-09T09:29:19.422Z,51.56
2023-04-09T09:30:19.448Z,50.43
2023-04-09T09:31:19.484Z,50.43
2023-04-09T09:32:19.467Z,51.08
2023-04-09T09:33:19.400Z,51.56
2023-04-09T09:34:19.407Z,50.60
2023-04-09T09:35:19.374Z,50.60
2023-04-09T09:36:19.368Z,49.63
2023-04-09T09:37:19.380Z,49.31
2023-04-09T09:38:19.401Z,48.34
2023-04-09T09:39:19.376Z,49.15
2023-04-09T09:40:19.353Z,48.82
2023-04-09T09:41:19.340Z,53.82
2023-04-09T09:42:19.348Z,52.85
2023-04-09T09:43:19.346Z,51.56
2023-04-09T09:44:19.347Z,49.79
2023-04-09T09:45:19.334Z,50.11
2023-04-09T09:46:19.355Z,50.43
2023-04-09T09:47:19.297Z,50.76
2023-04-09T09:48:19.301Z,48.98
2023-04-09T09:49:19.279Z,49.95
2023-04-09T09:50:19.284Z,48.50
2023-04-09T09:51:19.271Z,49.15
2023-04-09T09:52:19.271Z,48.82
2023-04-09T09:53:19.260Z,48.98
2023-04-09T09:54:19.258Z,51.88
2023-04-09T09:55:19.258Z,51.88
2023-04-09T09:56:19.245Z,51.72
2023-04-09T09:57:19.288Z,50.43
2023-04-09T09:58:19.235Z,49.15
2023-04-09T09:59:19.217Z,49.31
2023-04-09T10:00:19.537Z,51.56
2023-04-09T10:01:19.261Z,50.11
2023-04-09T10:02:19.262Z,50.76
2023-04-09T10:03:19.255Z,51.24
2023-04-09T10:04:19.178Z,49.63
2023-04-09T10:05:19.196Z,50.92
2023-04-09T10:06:19.173Z,49.63
2023-04-09T10:07:19.174Z,49.79
2023-04-09T10:08:19.156Z,48.34
2023-04-09T10:09:19.141Z,49.95
2023-04-09T10:10:19.145Z,49.63
2023-04-09T10:11:19.175Z,50.27
2023-04-09T10:12:19.150Z,51.56
2023-04-09T10:13:19.114Z,49.47
2023-04-09T10:14:19.114Z,50.60
2023-04-09T10:15:19.106Z,50.60
2023-04-09T10:16:19.294Z,49.95
2023-04-09T10:17:19.103Z,50.11
2023-04-09T10:18:19.077Z,51.08
2023-04-09T10:19:19.083Z,49.95
2023-04-09T10:20:19.065Z,50.27
2023-04-09T10:21:19.054Z,51.24
2023-04-09T10:22:19.061Z,48.98
2023-04-09T10:23:19.051Z,50.11
2023-04-09T10:24:19.043Z,49.79
2023-04-09T10:25:19.051Z,48.66
2023-04-09T10:26:19.108Z,51.08
2023-04-09T10:27:19.017Z,50.92
2023-04-09T10:28:19.024Z,52.21
2023-04-09T10:29:19.033Z,49.47
2023-04-09T10:30:18.991Z,48.82
2023-04-09T10:31:19.034Z,49.15
2023-04-09T10:32:19.047Z,48.18
2023-04-09T10:33:21.487Z,50.11
2023-04-09T10:34:21.476Z,49.63
2023-04-09T10:35:20.984Z,51.72
2023-04-09T10:36:18.995Z,50.92
2023-04-09T10:37:18.973Z,53.17
2023-04-09T10:38:18.941Z,49.95
2023-04-09T10:39:18.924Z,53.17
2023-04-09T10:40:18.940Z,53.82
2023-04-09T10:41:18.916Z,53.01
2023-04-09T10:42:18.943Z,49.79
2023-04-09T10:43:18.919Z,50.76
2023-04-09T10:44:18.901Z,51.88
2023-04-09T10:45:20.112Z,52.69
2023-04-09T10:46:18.920Z,48.34
2023-04-09T10:47:18.881Z,52.53
2023-04-09T10:48:18.918Z,53.33
2023-04-09T10:49:18.881Z,52.85
2023-04-09T10:50:18.882Z,53.17
2023-04-09T10:51:18.861Z,50.43
2023-04-09T10:52:18.952Z,51.56
2023-04-09T10:53:18.857Z,50.60
2023-04-09T10:54:18.835Z,49.47
2023-04-09T10:55:18.843Z,50.11
2023-04-09T10:56:18.824Z,50.27
2023-04-09T10:57:18.902Z,53.66
2023-04-09T10:58:18.823Z,52.69
2023-04-09T10:59:18.815Z,52.21
2023-04-09T11:00:18.883Z,52.21
2023-04-09T11:01:18.842Z,50.43
2023-04-09T11:02:18.849Z,50.43
2023-04-09T11:03:18.918Z,51.88
2023-04-09T11:04:18.815Z,50.60
2023-04-09T11:05:18.765Z,50.27
2023-04-09T11:06:18.743Z,49.63
2023-04-09T11:07:18.751Z,51.24
2023-04-09T11:08:18.739Z,51.24
2023-04-09T11:09:18.723Z,48.82
2023-04-09T11:10:18.723Z,49.95
2023-04-09T11:11:18.727Z,51.24
2023-04-09T11:12:18.749Z,51.56
2023-04-09T11:13:18.698Z,51.08
2023-04-09T11:14:18.690Z,49.15
2023-04-09T11:15:18.687Z,51.56
2023-04-09T11:16:24.706Z,49.63
2023-04-09T11:17:19.665Z,49.79
2023-04-09T11:18:18.660Z,52.37
2023-04-09T11:19:18.670Z,51.40
2023-04-09T11:20:18.643Z,49.95
2023-04-09T11:21:18.640Z,50.11
2023-04-09T11:22:18.698Z,51.08
2023-04-09T11:23:18.637Z,51.24
2023-04-09T11:24:18.625Z,50.76
2023-04-09T11:25:18.612Z,48.98
2023-04-09T11:26:18.648Z,50.11
2023-04-09T11:27:18.617Z,49.15
2023-04-09T11:28:18.579Z,51.88
2023-04-09T11:29:18.576Z,51.56
2023-04-09T11:30:18.565Z,50.11
2023-04-09T11:31:18.590Z,51.24
2023-04-09T11:32:18.583Z,50.27
2023-04-09T11:33:19.951Z,46.57
2023-04-09T11:34:19.545Z,49.79
2023-04-09T11:35:18.558Z,46.89
2023-04-09T11:36:18.580Z,50.11
2023-04-09T11:37:18.521Z,49.63
2023-04-09T11:38:18.530Z,47.86
2023-04-09T11:39:18.516Z,48.50
2023-04-09T11:40:18.552Z,49.31
2023-04-09T11:41:18.497Z,49.15
2023-04-09T11:42:18.504Z,49.95
2023-04-09T11:43:18.542Z,49.95
2023-04-09T11:44:18.484Z,50.92
2023-04-09T11:45:18.506Z,52.85
2023-04-09T11:46:18.495Z,50.43
2023-04-09T11:47:18.482Z,51.24
2023-04-09T11:48:18.640Z,49.63
2023-04-09T11:49:18.446Z,48.82
2023-04-09T11:50:19.474Z,49.15
2023-04-09T11:51:18.525Z,48.18
2023-04-09T11:52:18.469Z,49.15
2023-04-09T11:53:18.420Z,48.34
2023-04-09T11:54:18.441Z,48.66
2023-04-09T11:55:18.805Z,48.02
2023-04-09T11:56:18.440Z,49.79
2023-04-09T11:57:18.400Z,49.79
2023-04-09T11:58:18.429Z,50.11
2023-04-09T11:59:18.386Z,48.02
2023-04-09T12:00:18.387Z,48.34
2023-04-09T12:01:18.396Z,50.11
2023-04-09T12:02:18.535Z,49.15
2023-04-09T12:03:18.544Z,50.60
2023-04-09T12:04:18.759Z,50.76
2023-04-09T12:05:18.403Z,51.72
2023-04-09T12:06:18.355Z,50.11
2023-04-09T12:07:18.364Z,53.17
2023-04-09T12:08:18.334Z,52.21
2023-04-09T12:09:18.333Z,53.33
2023-04-09T12:10:18.316Z,49.79
2023-04-09T12:11:18.317Z,50.76
2023-04-09T12:12:18.306Z,50.76
2023-04-09T12:13:18.293Z,50.43
2023-04-09T12:14:18.306Z,48.82
2023-04-09T12:15:18.279Z,51.56
2023-04-09T12:16:18.342Z,50.92
2023-04-09T12:17:18.267Z,49.15
2023-04-09T12:18:18.266Z,50.60
2023-04-09T12:19:18.269Z,49.95
2023-04-09T12:20:18.264Z,50.76
2023-04-09T12:21:19.315Z,51.72
2023-04-09T12:22:18.237Z,52.05
2023-04-09T12:23:18.225Z,48.66
2023-04-09T12:24:18.226Z,46.89
2023-04-09T12:25:18.230Z,51.24
2023-04-09T12:26:18.220Z,48.50
2023-04-09T12:27:18.201Z,48.50
2023-04-09T12:28:18.616Z,49.79
2023-04-09T12:29:18.189Z,51.40
2023-04-09T12:30:18.192Z,48.82
2023-04-09T12:31:18.206Z,49.95
2023-04-09T12:32:18.201Z,49.47
2023-04-09T12:33:18.165Z,50.11
2023-04-09T12:34:18.197Z,50.43
2023-04-09T12:35:18.165Z,51.24
2023-04-09T12:36:18.163Z,49.63
2023-04-09T12:37:18.154Z,50.43
2023-04-09T12:38:18.131Z,51.24
2023-04-09T12:39:18.123Z,51.24
2023-04-09T12:40:18.120Z,53.17
2023-04-09T12:41:18.124Z,52.21
2023-04-09T12:42:18.161Z,52.69
2023-04-09T12:43:18.114Z,50.43
2023-04-09T12:44:18.099Z,50.60
2023-04-09T12:45:18.106Z,48.66
2023-04-09T12:46:18.171Z,48.18
2023-04-09T12:47:18.091Z,47.86
2023-04-09T12:48:18.073Z,49.63
2023-04-09T12:49:18.059Z,49.79
2023-04-09T12:50:18.077Z,49.31
2023-04-09T12:51:18.060Z,47.37
2023-04-09T12:52:18.048Z,48.34